Time;durP1;ratioP1;P1;durP2;ratioP2;P2;SDS_P1;SDS_P2;PMS_P1;PMS_P2;Temp;Humidity;BMP_temperature;BMP_pressure;BME280_temperature;BME280_humidity;BME280_pressure;Samples;Min_cycle;Max_cycle;Signal;HPM_P1;HPM_P2
2023/06/11 00:00:28;;;;;;;7.78;4.57;;;13.20;99.90;;;;;;5074609;28;20199;-91
2023/06/11 00:03:01;;;;;;;8.60;4.30;;;13.20;99.90;;;;;;5076269;28;20204;-90
2023/06/11 00:05:39;;;;;;;9.57;4.60;;;13.20;99.90;;;;;;5076236;28;20576;-90
2023/06/11 00:08:11;;;;;;;5.28;3.50;;;13.20;99.90;;;;;;5075411;28;20199;-90
2023/06/11 00:10:43;;;;;;;9.70;4.32;;;13.20;99.90;;;;;;5075447;28;20200;-90
2023/06/11 00:13:15;;;;;;;7.15;3.75;;;13.30;99.90;;;;;;5075237;28;20546;-90
2023/06/11 00:15:48;;;;;;;6.82;3.85;;;13.30;99.90;;;;;;5074602;28;20211;-90
2023/06/11 00:18:19;;;;;;;6.97;3.92;;;13.40;99.90;;;;;;5075577;28;20211;-90
2023/06/11 00:20:56;;;;;;;9.32;4.38;;;13.60;99.90;;;;;;5075567;28;20207;-90
2023/06/11 00:23:28;;;;;;;10.00;4.50;;;13.50;99.90;;;;;;5074062;28;20195;-90
2023/06/11 00:25:59;;;;;;;7.38;3.38;;;13.50;99.90;;;;;;5074741;28;20228;-92
2023/06/11 00:28:32;;;;;;;8.38;4.18;;;13.60;99.90;;;;;;5075307;28;20253;-92
2023/06/11 00:31:05;;;;;;;8.10;3.72;;;13.80;99.90;;;;;;5075717;28;20199;-91
2023/06/11 00:33:36;;;;;;;6.97;3.95;;;13.90;99.90;;;;;;5083717;28;20227;-92
2023/06/11 00:36:11;;;;;;;6.45;3.90;;;13.80;99.90;;;;;;5075376;28;20200;-92
2023/06/11 00:38:42;;;;;;;6.68;4.05;;;14.00;99.90;;;;;;5075700;28;20207;-92
2023/06/11 00:41:15;;;;;;;5.28;3.50;;;14.10;99.90;;;;;;5074715;28;20250;-91
2023/06/11 00:43:48;;;;;;;7.05;3.92;;;14.10;99.90;;;;;;5074490;28;20203;-91
2023/06/11 00:46:21;;;;;;;9.00;4.38;;;14.10;99.90;;;;;;5074380;28;20311;-91
2023/06/11 00:48:53;;;;;;;7.43;4.00;;;14.30;99.90;;;;;;5074314;28;20200;-91
2023/06/11 00:51:29;;;;;;;7.40;4.22;;;14.40;99.90;;;;;;5074101;28;20199;-91
2023/06/11 00:54:01;;;;;;;5.30;3.53;;;14.40;99.90;;;;;;5074084;28;20598;-91
2023/06/11 00:56:33;;;;;;;8.63;3.97;;;14.60;99.90;;;;;;5073899;28;20212;-91
2023/06/11 00:59:04;;;;;;;6.03;3.67;;;14.60;99.90;;;;;;5075438;28;20217;-91
2023/06/11 01:01:41;;;;;;;8.68;4.18;;;14.70;99.90;;;;;;5073881;28;20541;-91
2023/06/11 01:04:18;;;;;;;8.45;3.60;;;14.70;99.90;;;;;;5074387;28;20191;-91
2023/06/11 01:06:59;;;;;;;7.75;4.13;;;14.80;99.90;;;;;;5075122;28;20227;-91
2023/06/11 01:09:33;;;;;;;5.18;3.33;;;14.90;99.90;;;;;;5075016;28;20199;-91
2023/06/11 01:12:08;;;;;;;7.45;3.65;;;15.10;99.90;;;;;;5074488;28;20203;-91
2023/06/11 01:14:39;;;;;;;6.10;3.95;;;15.10;99.90;;;;;;5074379;28;20199;-92
2023/06/11 01:17:17;;;;;;;6.55;3.40;;;15.10;99.90;;;;;;5074236;28;20723;-92
2023/06/11 01:20:13;;;;;;;6.85;4.10;;;15.20;99.90;;;;;;5074735;28;20203;-91
2023/06/11 01:23:00;;;;;;;7.35;3.63;;;15.20;99.90;;;;;;5075171;28;20191;-91
2023/06/11 01:25:39;;;;;;;7.38;3.72;;;15.20;99.90;;;;;;5074642;28;20239;-91
2023/06/11 01:28:16;;;;;;;7.15;3.35;;;15.30;99.90;;;;;;5087859;28;20226;-89
2023/06/11 01:30:55;;;;;;;6.95;3.50;;;15.50;99.90;;;;;;5088349;28;20187;-87
2023/06/11 01:33:28;;;;;;;12.23;3.88;;;15.60;99.90;;;;;;5084549;28;20231;-92
2023/06/11 01:36:00;;;;;;;14.05;3.80;;;15.80;99.90;;;;;;5073781;28;20703;-91
2023/06/11 01:38:34;;;;;;;7.05;3.60;;;15.90;99.90;;;;;;5074391;28;20218;-91
2023/06/11 01:41:07;;;;;;;6.53;3.67;;;15.90;99.90;;;;;;5074407;28;20211;-92
2023/06/11 01:43:43;;;;;;;9.23;3.85;;;16.00;99.90;;;;;;5072942;28;20222;-91
2023/06/11 01:46:15;;;;;;;11.00;3.67;;;16.10;99.90;;;;;;5056477;28;20226;-92
2023/06/11 01:48:46;;;;;;;9.48;3.92;;;16.20;99.90;;;;;;5073643;28;20200;-92
2023/06/11 01:51:20;;;;;;;9.18;3.53;;;16.10;99.90;;;;;;5085727;28;20269;-91
2023/06/11 01:53:51;;;;;;;7.75;3.30;;;16.30;99.90;;;;;;5091314;28;20199;-90
2023/06/11 01:56:24;;;;;;;6.90;3.75;;;16.30;99.90;;;;;;5078779;28;20204;-91
2023/06/11 01:59:00;;;;;;;4.80;3.20;;;16.50;99.90;;;;;;5073852;28;20215;-91
2023/06/11 02:01:32;;;;;;;6.13;3.42;;;16.50;99.90;;;;;;5072885;28;20217;-91
2023/06/11 02:04:05;;;;;;;4.93;3.20;;;16.60;99.90;;;;;;5089758;28;20250;-90
2023/06/11 02:06:38;;;;;;;7.78;3.60;;;16.70;99.90;;;;;;5073595;28;20235;-91
2023/06/11 02:09:10;;;;;;;10.15;3.65;;;16.70;99.90;;;;;;5073372;28;20203;-91
2023/06/11 02:11:45;;;;;;;7.45;3.70;;;16.80;99.90;;;;;;5062307;28;20235;-89
2023/06/11 02:14:19;;;;;;;9.63;3.83;;;16.80;99.90;;;;;;5053331;28;20204;-90
2023/06/11 02:16:52;;;;;;;9.73;3.97;;;16.80;99.90;;;;;;5053799;28;20590;-91
2023/06/11 02:19:23;;;;;;;5.50;2.80;;;16.70;99.90;;;;;;5053565;28;20300;-90
2023/06/11 02:21:54;;;;;;;6.20;3.17;;;16.80;99.90;;;;;;5053278;28;20197;-90
2023/06/11 02:24:26;;;;;;;8.63;3.47;;;16.80;99.90;;;;;;5052770;28;20201;-91
2023/06/11 02:26:57;;;;;;;6.53;2.20;;;16.90;99.90;;;;;;5052704;28;20311;-89
2023/06/11 02:29:33;;;;;;;7.00;3.00;;;16.80;99.90;;;;;;5053582;28;20208;-89
2023/06/11 02:32:06;;;;;;;6.78;3.17;;;16.80;99.90;;;;;;5064088;28;20195;-91
2023/06/11 02:34:38;;;;;;;6.68;3.00;;;16.70;99.90;;;;;;5077786;28;20235;-90
2023/06/11 02:37:09;;;;;;;5.75;2.75;;;16.90;99.90;;;;;;5078331;28;20199;-91
2023/06/11 02:39:42;;;;;;;4.78;2.38;;;17.00;99.90;;;;;;5077686;28;20207;-91
2023/06/11 02:42:13;;;;;;;4.82;2.47;;;17.10;99.90;;;;;;5077644;28;20206;-90
2023/06/11 02:44:47;;;;;;;3.92;2.15;;;17.20;99.90;;;;;;5083614;28;20194;-90
2023/06/11 02:47:19;;;;;;;3.45;1.48;;;17.30;99.90;;;;;;5090594;28;20279;-90
2023/06/11 02:49:50;;;;;;;3.55;1.52;;;17.40;99.90;;;;;;5088172;28;20199;-89
2023/06/11 02:52:21;;;;;;;2.70;1.30;;;17.40;99.90;;;;;;5073396;28;20196;-90
2023/06/11 02:54:53;;;;;;;3.40;1.20;;;17.50;99.90;;;;;;5073715;28;20196;-91
2023/06/11 02:57:25;;;;;;;6.30;1.90;;;17.50;99.90;;;;;;5073129;28;20207;-90
2023/06/11 03:00:01;;;;;;;3.88;1.45;;;17.50;99.90;;;;;;5072738;28;20214;-90
2023/06/11 03:02:33;;;;;;;3.38;1.50;;;17.30;99.90;;;;;;5072939;28;20615;-89
2023/06/11 03:05:06;;;;;;;2.97;1.60;;;17.40;99.90;;;;;;5072650;28;20667;-90
2023/06/11 03:07:40;;;;;;;4.38;1.85;;;17.50;99.90;;;;;;5073728;28;20279;-90
2023/06/11 03:10:16;;;;;;;3.63;1.58;;;17.70;99.90;;;;;;5076549;28;20675;-90
2023/06/11 03:12:49;;;;;;;3.97;1.95;;;17.80;99.90;;;;;;5076506;28;20200;-90
2023/06/11 03:15:24;;;;;;;5.65;2.10;;;17.80;99.90;;;;;;5075975;28;20206;-89
2023/06/11 03:17:55;;;;;;;4.07;1.80;;;17.80;99.90;;;;;;5076342;28;20191;-90
2023/06/11 03:20:27;;;;;;;2.95;1.60;;;17.90;99.90;;;;;;5076420;28;20199;-90
2023/06/11 03:22:59;;;;;;;3.40;1.75;;;18.00;99.90;;;;;;5075898;28;20208;-89
2023/06/11 03:25:30;;;;;;;9.27;2.25;;;18.10;99.90;;;;;;5076159;28;20257;-90
2023/06/11 03:28:02;;;;;;;5.65;1.80;;;18.10;99.90;;;;;;5076157;28;20211;-90
2023/06/11 03:30:35;;;;;;;5.55;1.55;;;18.10;99.90;;;;;;5075664;28;20200;-90
2023/06/11 03:33:06;;;;;;;5.32;1.90;;;18.10;99.90;;;;;;5075907;28;20203;-90
2023/06/11 03:35:39;;;;;;;4.10;1.60;;;18.10;99.90;;;;;;5075823;28;20200;-91
2023/06/11 03:38:10;;;;;;;3.88;1.63;;;18.10;99.90;;;;;;5075982;28;20203;-90
2023/06/11 03:40:41;;;;;;;3.38;2.03;;;18.10;99.90;;;;;;5076006;28;20215;-90
2023/06/11 03:43:12;;;;;;;5.60;1.88;;;18.10;99.90;;;;;;5074772;28;20211;-90
2023/06/11 03:45:47;;;;;;;4.20;1.67;;;18.10;99.90;;;;;;5074742;28;20223;-90
2023/06/11 03:48:20;;;;;;;6.70;1.40;;;18.00;99.90;;;;;;5075742;28;20207;-90
2023/06/11 03:50:51;;;;;;;5.82;1.70;;;18.00;99.90;;;;;;5075535;28;20280;-89
2023/06/11 03:53:23;;;;;;;4.00;1.67;;;18.00;99.90;;;;;;5075922;28;20666;-91
2023/06/11 03:55:55;;;;;;;3.60;1.50;;;18.00;99.90;;;;;;5076049;28;20208;-90
2023/06/11 03:58:26;;;;;;;3.10;1.70;;;18.00;99.90;;;;;;5075969;28;20673;-90
2023/06/11 04:01:02;;;;;;;4.32;1.60;;;18.00;99.90;;;;;;5075132;28;20206;-91
2023/06/11 04:03:35;;;;;;;5.55;2.10;;;18.00;99.90;;;;;;5075536;28;20199;-90
2023/06/11 04:06:07;;;;;;;4.88;2.00;;;18.00;99.90;;;;;;5075648;28;20257;-90
2023/06/11 04:08:39;;;;;;;5.45;2.60;;;18.00;99.90;;;;;;5075820;28;20203;-90
2023/06/11 04:11:11;;;;;;;7.90;3.40;;;18.00;99.90;;;;;;5075276;28;20203;-89
2023/06/11 04:13:42;;;;;;;5.25;2.45;;;18.00;99.90;;;;;;5075404;28;20287;-90
2023/06/11 04:16:16;;;;;;;4.75;2.05;;;18.00;99.90;;;;;;5075779;28;20203;-89
2023/06/11 04:18:49;;;;;;;3.25;1.70;;;18.00;99.90;;;;;;5074533;28;20211;-90
2023/06/11 04:21:21;;;;;;;4.32;2.10;;;17.90;99.90;;;;;;5075360;28;20223;-90
2023/06/11 04:23:54;;;;;;;4.22;1.77;;;18.00;99.90;;;;;;5088975;28;20180;-89
2023/06/11 04:26:26;;;;;;;4.00;1.67;;;18.00;99.90;;;;;;5091264;28;20239;-89
2023/06/11 04:28:58;;;;;;;5.68;1.70;;;17.90;99.90;;;;;;5076465;28;20203;-89
2023/06/11 04:31:32;;;;;;;4.15;1.88;;;17.90;99.90;;;;;;5075879;28;20215;-90
2023/06/11 04:34:06;;;;;;;3.72;1.63;;;17.90;99.90;;;;;;5075115;28;20314;-91
2023/06/11 04:36:38;;;;;;;4.68;1.50;;;17.90;99.90;;;;;;5075704;28;20671;-89
2023/06/11 04:39:09;;;;;;;4.07;1.45;;;17.90;99.90;;;;;;5074145;28;20195;-90
2023/06/11 04:41:41;;;;;;;3.42;1.23;;;17.90;99.90;;;;;;5074953;28;20287;-89
2023/06/11 04:44:14;;;;;;;3.08;1.40;;;17.90;99.90;;;;;;5073764;28;20278;-90
2023/06/11 04:46:49;;;;;;;3.20;1.40;;;17.90;99.90;;;;;;5074378;28;20227;-90
2023/06/11 04:49:23;;;;;;;4.40;1.60;;;17.90;99.90;;;;;;5075546;28;20601;-90
2023/06/11 04:51:57;;;;;;;4.82;1.50;;;17.90;99.90;;;;;;5073702;28;20207;-90
2023/06/11 04:54:31;;;;;;;4.57;1.70;;;17.90;99.90;;;;;;5073601;28;20192;-91
2023/06/11 04:57:02;;;;;;;4.18;1.50;;;17.80;99.90;;;;;;5074970;28;20211;-90
2023/06/11 04:59:33;;;;;;;3.67;1.40;;;17.90;99.90;;;;;;5074866;28;20204;-91
2023/06/11 05:02:09;;;;;;;8.70;1.60;;;17.90;99.90;;;;;;5074867;28;20195;-91
2023/06/11 05:04:42;;;;;;;4.68;1.35;;;17.90;99.90;;;;;;5077859;28;20245;-91
2023/06/11 05:07:15;;;;;;;5.65;1.58;;;17.90;99.90;;;;;;5077605;28;20219;-90
2023/06/11 05:09:47;;;;;;;4.43;1.38;;;17.90;99.90;;;;;;5074873;28;20202;-90
2023/06/11 05:12:20;;;;;;;3.13;1.48;;;17.80;99.90;;;;;;5074267;28;20191;-90
2023/06/11 05:14:51;;;;;;;4.75;1.30;;;17.80;99.90;;;;;;5072773;28;20184;-90
2023/06/11 05:17:24;;;;;;;2.95;1.10;;;17.80;99.90;;;;;;5074147;28;20211;-91
2023/06/11 05:19:56;;;;;;;5.40;1.40;;;17.80;99.90;;;;;;5074277;28;20200;-91
2023/06/11 05:22:29;;;;;;;3.03;1.23;;;17.80;99.90;;;;;;5073391;28;20197;-90
2023/06/11 05:25:01;;;;;;;4.32;1.60;;;17.80;99.90;;;;;;5072675;28;20203;-91
2023/06/11 05:27:34;;;;;;;6.15;1.40;;;17.70;99.90;;;;;;5073849;28;20223;-90
2023/06/11 05:30:10;;;;;;;4.45;1.52;;;17.80;99.90;;;;;;5076692;28;20227;-89
2023/06/11 05:32:45;;;;;;;3.17;1.38;;;17.70;99.90;;;;;;5075094;28;20191;-89
2023/06/11 05:35:18;;;;;;;4.57;1.80;;;17.80;99.90;;;;;;5074722;28;20698;-91
2023/06/11 05:37:49;;;;;;;6.05;1.50;;;17.70;99.90;;;;;;5074041;28;20208;-90
2023/06/11 05:40:20;;;;;;;3.75;1.50;;;17.70;99.90;;;;;;5074603;28;20207;-91
2023/06/11 05:42:53;;;;;;;3.33;1.13;;;17.60;99.90;;;;;;5075834;28;20204;-89
2023/06/11 05:45:25;;;;;;;3.70;1.23;;;17.60;99.90;;;;;;5077896;28;20666;-90
2023/06/11 05:47:59;;;;;;;4.20;1.30;;;17.60;99.90;;;;;;5077077;28;20227;-90
2023/06/11 05:50:30;;;;;;;2.70;1.10;;;17.60;99.90;;;;;;5077482;28;20191;-90
2023/06/11 05:53:03;;;;;;;8.55;1.20;;;17.60;99.90;;;;;;5077314;28;20358;-90
2023/06/11 05:55:34;;;;;;;2.42;1.40;;;17.60;99.90;;;;;;5074507;28;20195;-91
2023/06/11 05:58:05;;;;;;;3.88;1.38;;;17.60;99.90;;;;;;5073328;28;20253;-91
2023/06/11 06:00:38;;;;;;;3.30;1.42;;;17.60;99.90;;;;;;5072597;28;20196;-91
2023/06/11 06:03:12;;;;;;;5.93;1.35;;;17.70;99.90;;;;;;5074237;28;20207;-91
2023/06/11 06:05:46;;;;;;;3.65;1.65;;;17.70;99.90;;;;;;5072525;28;20195;-91
2023/06/11 06:08:17;;;;;;;2.60;1.20;;;17.70;99.90;;;;;;5075312;28;20628;-91
2023/06/11 06:10:50;;;;;;;2.80;1.30;;;17.70;99.90;;;;;;5074595;28;20210;-91
2023/06/11 06:13:23;;;;;;;3.38;1.30;;;17.70;99.90;;;;;;5078369;28;20211;-87
2023/06/11 06:15:54;;;;;;;3.90;1.10;;;17.60;99.90;;;;;;5083152;28;20192;-90
2023/06/11 06:18:29;;;;;;;4.75;1.33;;;17.70;99.90;;;;;;5081056;28;20226;-87
2023/06/11 06:21:01;;;;;;;5.10;1.55;;;17.60;99.90;;;;;;5088978;28;20192;-88
2023/06/11 06:23:33;;;;;;;3.63;1.15;;;17.70;99.90;;;;;;5087858;28;20214;-89
2023/06/11 06:26:05;;;;;;;3.35;1.38;;;17.70;99.90;;;;;;5079634;28;20196;-91
2023/06/11 06:28:36;;;;;;;4.18;1.40;;;17.70;99.90;;;;;;5073109;28;20328;-91
2023/06/11 06:31:12;;;;;;;3.85;1.20;;;17.60;99.90;;;;;;5073537;28;20204;-91
2023/06/11 06:33:46;;;;;;;3.25;1.42;;;17.50;99.90;;;;;;5086942;28;20295;-91
2023/06/11 06:36:19;;;;;;;2.92;1.38;;;17.40;99.90;;;;;;5090399;28;20267;-91
2023/06/11 06:38:51;;;;;;;6.07;1.42;;;17.40;99.90;;;;;;5080853;28;20223;-91
2023/06/11 06:41:22;;;;;;;4.75;1.58;;;17.30;99.90;;;;;;5085226;28;20200;-91
2023/06/11 06:43:54;;;;;;;4.00;1.70;;;17.20;99.90;;;;;;5073499;28;20196;-91
2023/06/11 06:46:26;;;;;;;6.07;1.88;;;17.10;99.90;;;;;;5072495;28;20213;-91
2023/06/11 06:48:59;;;;;;;3.38;1.80;;;17.00;99.90;;;;;;5073248;28;20710;-91
2023/06/11 06:51:33;;;;;;;3.65;1.63;;;17.00;99.90;;;;;;5072777;28;20211;-90
2023/06/11 06:54:05;;;;;;;4.72;1.98;;;16.90;99.90;;;;;;5075270;28;20196;-91
2023/06/11 06:56:38;;;;;;;3.92;1.80;;;16.80;99.90;;;;;;5094233;28;20180;-90
2023/06/11 06:59:10;;;;;;;3.50;2.00;;;16.70;99.90;;;;;;5081525;28;20275;-90
2023/06/11 07:01:43;;;;;;;5.30;2.00;;;16.70;99.90;;;;;;5053399;28;20551;-89
2023/06/11 07:04:17;;;;;;;5.85;2.00;;;16.70;99.90;;;;;;5061052;28;20208;-91
2023/06/11 07:06:48;;;;;;;6.35;1.60;;;16.60;99.90;;;;;;5066355;28;20569;-90
2023/06/11 07:09:21;;;;;;;4.13;1.20;;;16.60;99.90;;;;;;5064216;28;20214;-90
2023/06/11 07:11:53;;;;;;;3.55;1.40;;;16.60;99.90;;;;;;5072763;28;20588;-90
2023/06/11 07:14:25;;;;;;;5.68;1.40;;;16.50;99.90;;;;;;5052406;28;20205;-91
2023/06/11 07:19:47;;;;;;;2.67;1.30;;;16.40;99.90;;;;;;5053803;28;20192;-90
2023/06/11 07:22:18;;;;;;;3.70;1.30;;;16.40;99.90;;;;;;5074178;28;20195;-91
2023/06/11 07:24:50;;;;;;;3.60;1.58;;;16.30;99.90;;;;;;5066906;28;20196;-90
2023/06/11 07:27:21;;;;;;;4.50;1.88;;;16.30;99.90;;;;;;5051828;28;20221;-90
2023/06/11 07:29:52;;;;;;;4.10;2.03;;;16.30;99.90;;;;;;5052840;28;20251;-90
2023/06/11 07:32:24;;;;;;;5.47;2.03;;;16.30;99.90;;;;;;5051925;28;20208;-91
2023/06/11 07:34:59;;;;;;;4.05;2.13;;;16.20;99.90;;;;;;5052120;28;20240;-91
2023/06/11 07:37:30;;;;;;;3.42;2.35;;;16.20;99.90;;;;;;5054233;28;20220;-90
2023/06/11 07:40:04;;;;;;;4.30;2.05;;;16.20;99.90;;;;;;5070500;28;20203;-91
2023/06/11 07:42:36;;;;;;;4.32;1.73;;;16.20;99.90;;;;;;5052661;28;20208;-91
2023/06/11 07:45:10;;;;;;;3.35;1.70;;;16.10;99.90;;;;;;5054017;28;20200;-91
2023/06/11 07:47:42;;;;;;;3.17;1.40;;;16.10;99.90;;;;;;5068782;28;20220;-90
2023/06/11 07:50:20;;;;;;;2.70;1.52;;;16.10;99.90;;;;;;5053851;28;20192;-90
2023/06/11 07:52:51;;;;;;;4.75;1.90;;;16.10;99.90;;;;;;5053250;28;20203;-90
2023/06/11 07:55:24;;;;;;;4.57;1.75;;;16.00;99.90;;;;;;5064479;28;20208;-91
2023/06/11 07:57:55;;;;;;;5.07;1.90;;;16.00;99.90;;;;;;5064153;28;20208;-90
2023/06/11 08:00:27;;;;;;;4.10;1.80;;;16.00;99.90;;;;;;5066771;28;20659;-91
2023/06/11 08:02:58;;;;;;;4.63;2.00;;;16.00;99.90;;;;;;5075959;28;20203;-91
2023/06/11 08:05:33;;;;;;;4.32;2.03;;;15.90;99.90;;;;;;5077651;28;20199;-92
2023/06/11 08:08:05;;;;;;;5.82;2.42;;;15.90;99.90;;;;;;5077927;28;20334;-90
2023/06/11 08:10:37;;;;;;;4.25;1.90;;;15.90;99.90;;;;;;5074395;28;20200;-90
2023/06/11 08:13:08;;;;;;;4.55;2.08;;;15.90;99.90;;;;;;5074811;28;20265;-91
2023/06/11 08:15:40;;;;;;;6.00;2.05;;;15.80;99.90;;;;;;5073093;28;20748;-91
2023/06/11 08:18:11;;;;;;;6.53;2.20;;;15.80;99.90;;;;;;5055521;28;20208;-91
2023/06/11 08:20:45;;;;;;;4.72;1.80;;;15.80;99.90;;;;;;5054828;28;20206;-91
2023/06/11 08:23:16;;;;;;;5.00;1.77;;;15.80;99.90;;;;;;5056440;28;20200;-90
2023/06/11 08:25:50;;;;;;;4.07;1.73;;;15.70;99.90;;;;;;5056107;28;20205;-90
2023/06/11 08:28:22;;;;;;;4.78;1.75;;;15.70;99.90;;;;;;5057021;28;20220;-90
2023/06/11 08:30:53;;;;;;;3.45;1.70;;;15.60;99.90;;;;;;5056512;28;20197;-90
2023/06/11 08:33:25;;;;;;;7.13;2.22;;;15.70;99.90;;;;;;5056514;28;20219;-91
2023/06/11 08:36:00;;;;;;;4.72;2.10;;;15.70;99.90;;;;;;5075145;28;20609;-91
2023/06/11 08:38:31;;;;;;;3.63;2.08;;;15.60;99.90;;;;;;5075675;28;20195;-90
2023/06/11 08:41:04;;;;;;;7.15;2.03;;;15.60;99.90;;;;;;5074780;28;20321;-91
2023/06/11 08:43:37;;;;;;;3.65;2.10;;;15.60;99.90;;;;;;5073631;28;20203;-90
2023/06/11 08:46:13;;;;;;;6.60;2.33;;;15.60;99.90;;;;;;5074746;28;20204;-91
2023/06/11 08:48:47;;;;;;;2.50;1.75;;;15.50;99.90;;;;;;5074277;28;20291;-91
2023/06/11 08:51:22;;;;;;;4.90;2.38;;;15.50;99.90;;;;;;5075498;28;20203;-92
2023/06/11 08:53:55;;;;;;;3.83;1.92;;;15.50;99.90;;;;;;5074330;28;20567;-92
2023/06/11 08:56:27;;;;;;;4.70;2.15;;;15.50;99.90;;;;;;5074545;28;20223;-91
2023/06/11 08:59:00;;;;;;;4.22;2.10;;;15.50;99.90;;;;;;5074858;28;20195;-90
2023/06/11 09:01:32;;;;;;;5.03;2.15;;;15.50;99.90;;;;;;5074960;28;20210;-91
2023/06/11 09:04:05;;;;;;;5.38;2.60;;;15.50;99.90;;;;;;5074293;28;20641;-91
2023/06/11 09:06:40;;;;;;;7.00;2.70;;;15.40;99.90;;;;;;5074351;28;20199;-91
2023/06/11 09:09:15;;;;;;;5.85;2.25;;;15.40;99.90;;;;;;5074435;28;20275;-91
2023/06/11 09:11:49;;;;;;;6.15;2.20;;;15.40;99.90;;;;;;5074340;28;20212;-91
2023/06/11 09:14:22;;;;;;;4.22;2.30;;;15.40;99.90;;;;;;5074751;28;20207;-91
2023/06/11 09:16:53;;;;;;;4.97;2.42;;;15.40;99.90;;;;;;5074004;28;20203;-91
2023/06/11 09:19:24;;;;;;;5.90;2.47;;;15.40;99.90;;;;;;5074138;28;20243;-91
2023/06/11 09:22:02;;;;;;;6.70;2.40;;;15.40;99.90;;;;;;5074586;28;20196;-92
2023/06/11 09:24:34;;;;;;;4.97;2.50;;;15.40;99.90;;;;;;5084899;28;20220;-91
2023/06/11 09:27:08;;;;;;;3.50;2.15;;;15.30;99.90;;;;;;5085438;28;20211;-90
2023/06/11 09:29:50;;;;;;;7.40;2.83;;;15.30;99.90;;;;;;5079600;28;20226;-91
2023/06/11 09:32:21;;;;;;;5.93;2.60;;;15.30;99.90;;;;;;5091564;28;20792;-91
2023/06/11 09:34:55;;;;;;;5.20;3.00;;;15.30;99.90;;;;;;5076768;28;20236;-91
2023/06/11 09:37:29;;;;;;;5.22;2.63;;;15.30;99.90;;;;;;5077810;28;20681;-91
2023/06/11 09:40:02;;;;;;;5.35;2.72;;;15.30;99.90;;;;;;5054021;28;20250;-91
2023/06/11 09:42:40;;;;;;;7.28;3.05;;;15.30;99.90;;;;;;5053289;28;20228;-91
2023/06/11 09:45:16;;;;;;;7.78;3.10;;;15.30;99.90;;;;;;5053939;28;20200;-90
2023/06/11 09:47:48;;;;;;;6.78;3.30;;;15.30;99.90;;;;;;5053582;28;20657;-91
2023/06/11 09:50:21;;;;;;;6.63;3.13;;;15.30;99.90;;;;;;5053951;28;20207;-91
2023/06/11 09:52:57;;;;;;;6.32;3.70;;;15.30;99.90;;;;;;5052385;28;20284;-90
2023/06/11 09:55:34;;;;;;;6.78;3.20;;;15.30;99.90;;;;;;5072071;28;20196;-90
2023/06/11 09:58:07;;;;;;;4.70;3.13;;;15.20;99.90;;;;;;5073478;28;20191;-91
2023/06/11 10:00:39;;;;;;;6.78;3.22;;;15.30;99.90;;;;;;5073858;28;20677;-91
2023/06/11 10:03:12;;;;;;;7.70;3.60;;;15.20;99.90;;;;;;5073993;28;20278;-92
2023/06/11 10:05:43;;;;;;;6.05;3.45;;;15.20;99.90;;;;;;5072972;28;20199;-90
2023/06/11 10:08:22;;;;;;;6.22;3.58;;;15.20;99.90;;;;;;5073172;28;20215;-90
2023/06/11 10:10:59;;;;;;;6.35;3.55;;;15.20;99.90;;;;;;5072979;28;20555;-91
2023/06/11 10:13:33;;;;;;;7.22;3.90;;;15.10;99.90;;;;;;5073194;28;20203;-90
2023/06/11 10:16:07;;;;;;;6.65;4.38;;;15.10;99.90;;;;;;5072943;28;20191;-90
2023/06/11 10:18:38;;;;;;;9.82;5.07;;;15.10;99.90;;;;;;5073262;28;20200;-91
2023/06/11 10:21:09;;;;;;;9.30;5.05;;;15.10;99.90;;;;;;5073309;28;20196;-92
2023/06/11 10:23:44;;;;;;;7.43;4.10;;;15.10;99.90;;;;;;5073328;28;20200;-90
2023/06/11 10:26:17;;;;;;;7.55;4.75;;;15.00;99.90;;;;;;5072797;28;20206;-91
2023/06/11 10:28:51;;;;;;;5.72;3.97;;;15.00;99.90;;;;;;5074255;28;20231;-91
2023/06/11 10:31:32;;;;;;;8.65;5.22;;;15.00;99.90;;;;;;5090804;28;20245;-90
2023/06/11 10:34:06;;;;;;;9.38;5.15;;;15.00;99.90;;;;;;5092735;28;20238;-91
2023/06/11 10:36:42;;;;;;;9.23;5.13;;;15.00;99.90;;;;;;5076933;28;20192;-91
2023/06/11 10:39:27;;;;;;;7.47;4.50;;;15.00;99.90;;;;;;5073003;28;20204;-91
2023/06/11 10:42:05;;;;;;;10.30;4.93;;;15.00;99.90;;;;;;5072936;28;20576;-91
2023/06/11 10:44:45;;;;;;;7.72;5.28;;;15.00;99.90;;;;;;5072635;28;20286;-91
2023/06/11 10:47:17;;;;;;;6.60;4.93;;;15.00;99.90;;;;;;5072643;28;20196;-91
2023/06/11 10:49:50;;;;;;;10.45;5.72;;;15.00;99.90;;;;;;5072451;28;20595;-91
2023/06/11 10:52:22;;;;;;;7.85;4.97;;;15.00;99.90;;;;;;5072874;28;20204;-91
2023/06/11 10:54:56;;;;;;;7.47;4.90;;;15.00;99.90;;;;;;5072582;28;20192;-92
2023/06/11 10:57:29;;;;;;;9.63;4.32;;;15.00;99.90;;;;;;5072192;28;20227;-91
2023/06/11 11:00:00;;;;;;;9.43;4.30;;;15.00;99.90;;;;;;5072459;28;20202;-92
2023/06/11 11:02:32;;;;;;;7.65;4.22;;;14.90;99.90;;;;;;5072704;28;20457;-91
2023/06/11 11:05:05;;;;;;;6.50;4.20;;;14.90;99.90;;;;;;5074026;28;20200;-89
2023/06/11 11:07:38;;;;;;;7.88;4.15;;;14.90;99.90;;;;;;5082465;28;20200;-90
2023/06/11 11:10:18;;;;;;;8.50;4.28;;;14.90;99.90;;;;;;5081635;28;20228;-89
2023/06/11 11:12:51;;;;;;;6.47;3.70;;;14.90;99.90;;;;;;5076952;28;20208;-91
2023/06/11 11:15:23;;;;;;;8.05;4.03;;;14.90;99.90;;;;;;5072533;28;20203;-91
2023/06/11 11:17:55;;;;;;;8.90;4.30;;;14.90;99.90;;;;;;5071177;28;20205;-92
2023/06/11 11:20:28;;;;;;;7.55;3.90;;;14.90;99.90;;;;;;5070404;28;20214;-91
2023/06/11 11:23:00;;;;;;;5.72;3.67;;;14.90;99.90;;;;;;5072643;28;20206;-91
2023/06/11 11:25:34;;;;;;;7.03;4.38;;;14.90;99.90;;;;;;5072082;28;20196;-90
2023/06/11 11:28:06;;;;;;;6.35;4.38;;;14.90;99.90;;;;;;5073125;28;20200;-90
2023/06/11 11:30:37;;;;;;;7.47;4.43;;;14.90;99.90;;;;;;5076630;28;20203;-90
2023/06/11 11:33:10;;;;;;;6.40;4.40;;;14.80;99.90;;;;;;5075829;28;20206;-90
2023/06/11 11:35:51;;;;;;;8.45;4.40;;;14.80;99.90;;;;;;5076492;28;20210;-90
2023/06/11 11:38:22;;;;;;;7.90;4.65;;;14.80;99.90;;;;;;5075859;28;20207;-90
2023/06/11 11:41:01;;;;;;;8.45;4.43;;;14.80;99.90;;;;;;5075513;28;20203;-91
2023/06/11 11:43:40;;;;;;;6.82;4.05;;;14.80;99.90;;;;;;5076120;28;20207;-91
2023/06/11 11:46:23;;;;;;;6.20;4.07;;;14.70;99.90;;;;;;5076793;28;20282;-90
2023/06/11 11:48:59;;;;;;;6.15;3.83;;;14.70;99.90;;;;;;5076527;28;20219;-91
2023/06/11 11:51:35;;;;;;;6.35;4.00;;;14.70;99.90;;;;;;5096325;28;20199;-90
2023/06/11 11:54:08;;;;;;;5.72;3.63;;;14.70;99.90;;;;;;5081392;28;20259;-90
2023/06/11 11:56:45;;;;;;;6.20;3.80;;;14.80;99.90;;;;;;5076533;28;20210;-90
2023/06/11 11:59:24;;;;;;;6.15;3.70;;;14.70;99.90;;;;;;5075663;28;20199;-91
2023/06/11 12:02:00;;;;;;;7.65;3.80;;;14.70;99.90;;;;;;5076018;28;20214;-90
2023/06/11 12:04:40;;;;;;;5.05;3.78;;;14.70;99.90;;;;;;5075590;28;20282;-90
2023/06/11 12:07:14;;;;;;;6.25;3.75;;;14.60;99.90;;;;;;5078142;28;20226;-90
2023/06/11 12:09:46;;;;;;;6.47;3.60;;;14.60;99.90;;;;;;5085964;28;20689;-89
2023/06/11 12:12:22;;;;;;;7.00;3.58;;;14.60;99.90;;;;;;5081943;28;20202;-90
2023/06/11 12:14:54;;;;;;;5.22;3.30;;;14.70;99.90;;;;;;5077442;28;20260;-90
2023/06/11 12:17:26;;;;;;;5.32;3.58;;;14.60;99.90;;;;;;5076779;28;20218;-89
2023/06/11 12:19:58;;;;;;;8.15;5.55;;;14.60;99.90;;;;;;5074185;28;20229;-90
2023/06/11 12:22:31;;;;;;;10.40;6.55;;;14.60;99.90;;;;;;5055533;28;20216;-90
2023/06/11 12:25:02;;;;;;;15.00;7.40;;;14.40;99.90;;;;;;5055830;28;20208;-89
2023/06/11 12:27:37;;;;;;;11.00;6.63;;;14.30;99.90;;;;;;5066760;28;20208;-90
2023/06/11 12:30:09;;;;;;;8.25;5.95;;;14.20;99.90;;;;;;5076626;28;20230;-90
2023/06/11 12:32:42;;;;;;;9.80;5.88;;;14.20;99.90;;;;;;5078174;28;20662;-90
2023/06/11 12:35:13;;;;;;;13.63;5.78;;;14.10;99.90;;;;;;5078034;28;20268;-91
2023/06/11 12:37:46;;;;;;;10.57;5.78;;;14.10;99.90;;;;;;5077267;28;20206;-91
2023/06/11 12:40:19;;;;;;;9.55;5.35;;;14.00;99.90;;;;;;5076844;28;20206;-91
2023/06/11 12:42:56;;;;;;;10.00;5.30;;;14.00;99.90;;;;;;5076665;28;20566;-91
2023/06/11 12:45:30;;;;;;;7.43;4.55;;;14.00;99.90;;;;;;5076866;28;20199;-90
2023/06/11 12:48:03;;;;;;;11.60;5.18;;;14.00;99.90;;;;;;5076953;28;20313;-90
2023/06/11 12:50:35;;;;;;;9.48;4.80;;;14.00;99.90;;;;;;5076241;28;20759;-91
2023/06/11 12:53:08;;;;;;;7.30;4.28;;;14.10;99.90;;;;;;5076727;28;20199;-90
2023/06/11 12:55:43;;;;;;;8.80;4.28;;;14.10;99.90;;;;;;5078997;28;20207;-91
2023/06/11 12:58:17;;;;;;;6.78;4.03;;;14.10;99.90;;;;;;5078317;28;20199;-90
2023/06/11 13:00:48;;;;;;;6.85;4.65;;;14.10;99.90;;;;;;5074993;28;20204;-91
2023/06/11 13:03:20;;;;;;;9.02;4.75;;;14.20;99.90;;;;;;5075073;28;20196;-90
2023/06/11 13:05:53;;;;;;;8.50;4.78;;;14.10;99.90;;;;;;5083837;28;20198;-90
2023/06/11 13:08:25;;;;;;;6.35;4.30;;;14.10;99.90;;;;;;5077198;28;20196;-91
2023/06/11 13:10:58;;;;;;;9.73;5.07;;;13.90;99.90;;;;;;5078934;28;20207;-91
2023/06/11 13:13:34;;;;;;;11.43;7.60;;;13.90;99.90;;;;;;5078029;28;20212;-89
2023/06/11 13:16:07;;;;;;;13.10;8.05;;;13.80;99.90;;;;;;5077514;28;20203;-90
2023/06/11 13:18:39;;;;;;;12.70;8.55;;;13.80;99.90;;;;;;5078277;28;20196;-90